sensor_id;sensor_type;location;lat;lon;timestamp;pressure;altitude;pressure_sealevel;temperature;humidity
51528;BME280;37612;51.768;21.590;2023-11-18T00:01:36;100002.93;;;-0.03;100.00
51528;BME280;37612;51.768;21.590;2023-11-18T00:05:37;100001.31;;;-0.06;100.00
51528;BME280;37612;51.768;21.590;2023-11-18T00:09:38;100003.54;;;-0.07;100.00
51528;BME280;37612;51.768;21.590;2023-11-18T00:13:40;100006.02;;;-0.04;100.00
51528;BME280;37612;51.768;21.590;2023-11-18T00:17:43;100004.84;;;-0.03;100.00
51528;BME280;37612;51.768;21.590;2023-11-18T00:21:44;100009.50;;;-0.07;100.00
51528;BME280;37612;51.768;21.590;2023-11-18T00:25:45;100011.59;;;-0.08;100.00
51528;BME280;37612;51.768;21.590;2023-11-18T00:29:46;100016.81;;;-0.09;100.00
51528;BME280;37612;51.768;21.590;2023-11-18T00:33:48;100019.36;;;-0.12;100.00
51528;BME280;37612;51.768;21.590;2023-11-18T00:37:49;100022.89;;;-0.13;100.00
51528;BME280;37612;51.768;21.590;2023-11-18T00:41:51;100025.67;;;-0.13;100.00
51528;BME280;37612;51.768;21.590;2023-11-18T00:45:53;100035.74;;;-0.14;100.00
51528;BME280;37612;51.768;21.590;2023-11-18T00:49:54;100038.08;;;-0.16;100.00
51528;BME280;37612;51.768;21.590;2023-11-18T00:53:55;100043.85;;;-0.15;100.00
51528;BME280;37612;51.768;21.590;2023-11-18T00:57:56;100043.25;;;-0.12;100.00
51528;BME280;37612;51.768;21.590;2023-11-18T01:01:58;100042.42;;;-0.11;100.00
51528;BME280;37612;51.768;21.590;2023-11-18T01:05:59;100041.95;;;-0.13;100.00
51528;BME280;37612;51.768;21.590;2023-11-18T01:10:01;100046.06;;;-0.13;100.00
51528;BME280;37612;51.768;21.590;2023-11-18T01:14:03;100046.34;;;-0.13;100.00
51528;BME280;37612;51.768;21.590;2023-11-18T01:18:04;100046.87;;;-0.15;100.00
51528;BME280;37612;51.768;21.590;2023-11-18T01:22:07;100052.05;;;-0.17;100.00
51528;BME280;37612;51.768;21.590;2023-11-18T01:26:09;100050.98;;;-0.17;100.00
51528;BME280;37612;51.768;21.590;2023-11-18T01:30:14;100052.53;;;-0.12;100.00
51528;BME280;37612;51.768;21.590;2023-11-18T01:34:16;100048.81;;;-0.12;100.00
51528;BME280;37612;51.768;21.590;2023-11-18T01:38:18;100046.46;;;-0.16;100.00
51528;BME280;37612;51.768;21.590;2023-11-18T01:42:22;100039.43;;;-0.17;100.00
51528;BME280;37612;51.768;21.590;2023-11-18T01:46:23;100041.86;;;-0.14;100.00
51528;BME280;37612;51.768;21.590;2023-11-18T01:50:24;100041.02;;;-0.15;100.00
51528;BME280;37612;51.768;21.590;2023-11-18T01:54:26;100039.72;;;-0.16;100.00
51528;BME280;37612;51.768;21.590;2023-11-18T01:58:28;100037.62;;;-0.17;100.00
51528;BME280;37612;51.768;21.590;2023-11-18T02:02:32;100041.09;;;-0.16;100.00
51528;BME280;37612;51.768;21.590;2023-11-18T02:06:33;100040.56;;;-0.19;100.00
51528;BME280;37612;51.768;21.590;2023-11-18T02:10:40;100039.14;;;-0.22;100.00
51528;BME280;37612;51.768;21.590;2023-11-18T02:14:53;100041.75;;;-0.21;100.00
51528;BME280;37612;51.768;21.590;2023-11-18T02:18:56;100045.65;;;-0.22;100.00
51528;BME280;37612;51.768;21.590;2023-11-18T02:22:58;100042.06;;;-0.26;100.00
51528;BME280;37612;51.768;21.590;2023-11-18T02:27:00;100043.39;;;-0.24;100.00
51528;BME280;37612;51.768;21.590;2023-11-18T02:31:10;100042.52;;;-0.20;100.00
51528;BME280;37612;51.768;21.590;2023-11-18T02:35:29;100044.02;;;-0.20;100.00
51528;BME280;37612;51.768;21.590;2023-11-18T02:39:43;100045.85;;;-0.24;100.00
51528;BME280;37612;51.768;21.590;2023-11-18T02:43:46;100050.32;;;-0.25;100.00
51528;BME280;37612;51.768;21.590;2023-11-18T02:47:53;100051.41;;;-0.25;100.00
51528;BME280;37612;51.768;21.590;2023-11-18T02:51:58;100060.66;;;-0.25;100.00
51528;BME280;37612;51.768;21.590;2023-11-18T02:55:59;100065.58;;;-0.27;100.00
51528;BME280;37612;51.768;21.590;2023-11-18T03:00:07;100072.84;;;-0.26;100.00
51528;BME280;37612;51.768;21.590;2023-11-18T03:04:19;100070.45;;;-0.28;100.00
51528;BME280;37612;51.768;21.590;2023-11-18T03:08:20;100077.88;;;-0.30;100.00
51528;BME280;37612;51.768;21.590;2023-11-18T03:12:21;100078.54;;;-0.30;100.00
51528;BME280;37612;51.768;21.590;2023-11-18T03:16:23;100084.45;;;-0.28;100.00
51528;BME280;37612;51.768;21.590;2023-11-18T03:20:25;100086.66;;;-0.29;100.00
51528;BME280;37612;51.768;21.590;2023-11-18T03:24:27;100092.67;;;-0.31;100.00
51528;BME280;37612;51.768;21.590;2023-11-18T03:28:29;100101.75;;;-0.31;100.00
51528;BME280;37612;51.768;21.590;2023-11-18T03:32:30;100104.00;;;-0.28;100.00
51528;BME280;37612;51.768;21.590;2023-11-18T03:36:32;100108.52;;;-0.28;100.00
51528;BME280;37612;51.768;21.590;2023-11-18T03:40:33;100109.20;;;-0.28;100.00
51528;BME280;37612;51.768;21.590;2023-11-18T03:44:36;100105.29;;;-0.26;100.00
51528;BME280;37612;51.768;21.590;2023-11-18T03:48:38;100106.02;;;-0.21;100.00
51528;BME280;37612;51.768;21.590;2023-11-18T03:52:39;100111.14;;;-0.23;100.00
51528;BME280;37612;51.768;21.590;2023-11-18T03:56:41;100113.73;;;-0.25;100.00
51528;BME280;37612;51.768;21.590;2023-11-18T04:00:42;100114.18;;;-0.22;100.00
51528;BME280;37612;51.768;21.590;2023-11-18T04:04:44;100119.47;;;-0.19;100.00
51528;BME280;37612;51.768;21.590;2023-11-18T04:08:45;100125.73;;;-0.21;100.00
51528;BME280;37612;51.768;21.590;2023-11-18T04:12:47;100128.86;;;-0.25;100.00
51528;BME280;37612;51.768;21.590;2023-11-18T04:16:49;100134.31;;;-0.25;100.00
51528;BME280;37612;51.768;21.590;2023-11-18T04:20:50;100135.49;;;-0.27;100.00
51528;BME280;37612;51.768;21.590;2023-11-18T04:24:51;100131.25;;;-0.29;100.00
51528;BME280;37612;51.768;21.590;2023-11-18T04:28:52;100124.23;;;-0.28;100.00
51528;BME280;37612;51.768;21.590;2023-11-18T04:32:55;100123.44;;;-0.24;100.00
51528;BME280;37612;51.768;21.590;2023-11-18T04:36:57;100125.98;;;-0.23;100.00
51528;BME280;37612;51.768;21.590;2023-11-18T04:40:58;100129.70;;;-0.23;100.00
51528;BME280;37612;51.768;21.590;2023-11-18T04:45:00;100132.42;;;-0.24;100.00
51528;BME280;37612;51.768;21.590;2023-11-18T04:49:01;100135.04;;;-0.22;100.00
51528;BME280;37612;51.768;21.590;2023-11-18T04:53:02;100134.21;;;-0.24;100.00
51528;BME280;37612;51.768;21.590;2023-11-18T04:57:04;100137.34;;;-0.27;100.00
51528;BME280;37612;51.768;21.590;2023-11-18T05:01:05;100140.52;;;-0.29;100.00
51528;BME280;37612;51.768;21.590;2023-11-18T05:05:09;100147.24;;;-0.27;100.00
51528;BME280;37612;51.768;21.590;2023-11-18T05:09:10;100156.35;;;-0.22;100.00
51528;BME280;37612;51.768;21.590;2023-11-18T05:13:11;100153.86;;;-0.22;100.00
51528;BME280;37612;51.768;21.590;2023-11-18T05:17:16;100149.67;;;-0.26;100.00
51528;BME280;37612;51.768;21.590;2023-11-18T05:21:19;100151.45;;;-0.26;100.00
51528;BME280;37612;51.768;21.590;2023-11-18T05:25:20;100156.45;;;-0.22;100.00
51528;BME280;37612;51.768;21.590;2023-11-18T05:29:21;100160.78;;;-0.18;100.00
51528;BME280;37612;51.768;21.590;2023-11-18T05:33:22;100168.98;;;-0.21;100.00
51528;BME280;37612;51.768;21.590;2023-11-18T05:37:24;100172.98;;;-0.22;100.00
51528;BME280;37612;51.768;21.590;2023-11-18T05:41:25;100179.70;;;-0.23;100.00
51528;BME280;37612;51.768;21.590;2023-11-18T05:45:31;100184.59;;;-0.23;100.00
51528;BME280;37612;51.768;21.590;2023-11-18T05:49:45;100188.82;;;-0.24;100.00
51528;BME280;37612;51.768;21.590;2023-11-18T05:53:48;100190.49;;;-0.23;100.00
51528;BME280;37612;51.768;21.590;2023-11-18T05:57:50;100197.22;;;-0.24;100.00
51528;BME280;37612;51.768;21.590;2023-11-18T06:01:54;100199.15;;;-0.27;100.00
51528;BME280;37612;51.768;21.590;2023-11-18T06:05:57;100203.88;;;-0.27;100.00
51528;BME280;37612;51.768;21.590;2023-11-18T06:09:59;100205.46;;;-0.25;100.00
51528;BME280;37612;51.768;21.590;2023-11-18T06:14:01;100207.87;;;-0.26;100.00
51528;BME280;37612;51.768;21.590;2023-11-18T06:18:02;100220.58;;;-0.29;100.00
51528;BME280;37612;51.768;21.590;2023-11-18T06:22:06;100226.89;;;-0.28;100.00
51528;BME280;37612;51.768;21.590;2023-11-18T06:26:07;100234.21;;;-0.24;100.00
51528;BME280;37612;51.768;21.590;2023-11-18T06:30:12;100242.96;;;-0.26;100.00
51528;BME280;37612;51.768;21.590;2023-11-18T06:34:13;100248.84;;;-0.26;100.00
51528;BME280;37612;51.768;21.590;2023-11-18T06:38:14;100248.25;;;-0.23;100.00
51528;BME280;37612;51.768;21.590;2023-11-18T06:42:16;100247.27;;;-0.24;100.00
51528;BME280;37612;51.768;21.590;2023-11-18T06:46:26;100248.10;;;-0.27;100.00
51528;BME280;37612;51.768;21.590;2023-11-18T06:50:36;100254.76;;;-0.25;100.00
51528;BME280;37612;51.768;21.590;2023-11-18T06:54:43;100263.00;;;-0.22;100.00
51528;BME280;37612;51.768;21.590;2023-11-18T06:58:45;100271.40;;;-0.22;100.00
51528;BME280;37612;51.768;21.590;2023-11-18T07:02:46;100282.00;;;-0.23;100.00
51528;BME280;37612;51.768;21.590;2023-11-18T07:06:49;100279.65;;;-0.21;100.00
51528;BME280;37612;51.768;21.590;2023-11-18T07:10:50;100288.09;;;-0.18;100.00
51528;BME280;37612;51.768;21.590;2023-11-18T07:14:51;100289.66;;;-0.16;100.00
51528;BME280;37612;51.768;21.590;2023-11-18T07:18:55;100293.88;;;-0.14;100.00
51528;BME280;37612;51.768;21.590;2023-11-18T07:22:56;100304.71;;;-0.09;100.00
51528;BME280;37612;51.768;21.590;2023-11-18T07:26:57;100307.17;;;-0.06;100.00
51528;BME280;37612;51.768;21.590;2023-11-18T07:31:01;100313.13;;;-0.08;100.00
51528;BME280;37612;51.768;21.590;2023-11-18T07:35:05;100322.98;;;-0.07;100.00
51528;BME280;37612;51.768;21.590;2023-11-18T07:39:10;100321.44;;;-0.04;100.00
51528;BME280;37612;51.768;21.590;2023-11-18T07:43:16;100319.20;;;-0.03;100.00
51528;BME280;37612;51.768;21.590;2023-11-18T07:47:18;100316.94;;;-0.03;100.00
51528;BME280;37612;51.768;21.590;2023-11-18T07:51:20;100317.06;;;0.01;100.00
51528;BME280;37612;51.768;21.590;2023-11-18T07:55:22;100315.76;;;0.04;100.00
51528;BME280;37612;51.768;21.590;2023-11-18T07:59:24;100319.81;;;0.03;100.00
51528;BME280;37612;51.768;21.590;2023-11-18T08:03:26;100332.96;;;0.06;100.00
51528;BME280;37612;51.768;21.590;2023-11-18T08:07:29;100328.05;;;0.09;100.00
51528;BME280;37612;51.768;21.590;2023-11-18T08:11:30;100332.86;;;0.12;100.00
51528;BME280;37612;51.768;21.590;2023-11-18T08:15:32;100333.61;;;0.17;100.00
51528;BME280;37612;51.768;21.590;2023-11-18T08:19:33;100328.30;;;0.21;100.00
51528;BME280;37612;51.768;21.590;2023-11-18T08:23:35;100338.66;;;0.24;100.00
51528;BME280;37612;51.768;21.590;2023-11-18T08:27:36;100352.56;;;0.29;100.00
51528;BME280;37612;51.768;21.590;2023-11-18T08:31:38;100360.00;;;0.33;100.00
51528;BME280;37612;51.768;21.590;2023-11-18T08:35:45;100366.08;;;0.32;100.00
51528;BME280;37612;51.768;21.590;2023-11-18T08:39:47;100371.62;;;0.37;100.00
51528;BME280;37612;51.768;21.590;2023-11-18T08:43:48;100377.17;;;0.40;100.00
51528;BME280;37612;51.768;21.590;2023-11-18T08:47:50;100378.14;;;0.38;100.00
51528;BME280;37612;51.768;21.590;2023-11-18T08:51:53;100389.24;;;0.37;100.00
51528;BME280;37612;51.768;21.590;2023-11-18T08:55:59;100387.84;;;0.36;100.00
51528;BME280;37612;51.768;21.590;2023-11-18T09:00:00;100399.77;;;0.34;100.00
51528;BME280;37612;51.768;21.590;2023-11-18T09:04:08;100402.14;;;0.38;100.00
51528;BME280;37612;51.768;21.590;2023-11-18T09:08:10;100402.74;;;0.45;100.00
51528;BME280;37612;51.768;21.590;2023-11-18T09:12:14;100410.20;;;0.46;100.00
51528;BME280;37612;51.768;21.590;2023-11-18T09:16:21;100413.81;;;0.43;100.00
51528;BME280;37612;51.768;21.590;2023-11-18T09:20:31;100416.48;;;0.40;100.00
51528;BME280;37612;51.768;21.590;2023-11-18T09:24:33;100410.90;;;0.43;100.00
51528;BME280;37612;51.768;21.590;2023-11-18T09:28:40;100409.44;;;0.43;100.00
51528;BME280;37612;51.768;21.590;2023-11-18T09:32:53;100404.98;;;0.50;100.00
51528;BME280;37612;51.768;21.590;2023-11-18T09:36:56;100404.83;;;0.55;100.00
51528;BME280;37612;51.768;21.590;2023-11-18T09:40:58;100408.06;;;0.60;100.00
51528;BME280;37612;51.768;21.590;2023-11-18T09:45:08;100413.93;;;0.67;100.00
51528;BME280;37612;51.768;21.590;2023-11-18T09:49:28;100418.61;;;0.69;100.00
51528;BME280;37612;51.768;21.590;2023-11-18T09:53:38;100428.27;;;0.67;100.00
51528;BME280;37612;51.768;21.590;2023-11-18T09:57:44;100432.70;;;0.61;100.00
51528;BME280;37612;51.768;21.590;2023-11-18T10:01:51;100431.70;;;0.57;100.00
51528;BME280;37612;51.768;21.590;2023-11-18T10:05:54;100434.64;;;0.54;100.00
51528;BME280;37612;51.768;21.590;2023-11-18T10:09:58;100432.89;;;0.57;100.00
51528;BME280;37612;51.768;21.590;2023-11-18T10:13:59;100428.67;;;0.66;100.00
51528;BME280;37612;51.768;21.590;2023-11-18T10:18:08;100428.33;;;0.73;100.00
51528;BME280;37612;51.768;21.590;2023-11-18T10:22:24;100426.84;;;0.77;100.00
51528;BME280;37612;51.768;21.590;2023-11-18T10:26:27;100435.63;;;0.82;100.00
51528;BME280;37612;51.768;21.590;2023-11-18T10:30:29;100440.11;;;0.84;100.00
51528;BME280;37612;51.768;21.590;2023-11-18T10:34:36;100444.00;;;0.84;100.00
51528;BME280;37612;51.768;21.590;2023-11-18T10:38:40;100449.20;;;0.86;100.00
51528;BME280;37612;51.768;21.590;2023-11-18T10:42:50;100456.66;;;0.88;100.00
51528;BME280;37612;51.768;21.590;2023-11-18T10:46:54;100452.97;;;0.90;100.00
51528;BME280;37612;51.768;21.590;2023-11-18T10:51:00;100451.48;;;0.87;100.00
51528;BME280;37612;51.768;21.590;2023-11-18T10:55:02;100450.52;;;0.84;100.00
51528;BME280;37612;51.768;21.590;2023-11-18T10:59:12;100456.18;;;0.83;100.00
51528;BME280;37612;51.768;21.590;2023-11-18T11:03:17;100457.55;;;0.85;100.00
51528;BME280;37612;51.768;21.590;2023-11-18T11:07:21;100456.17;;;0.80;100.00
51528;BME280;37612;51.768;21.590;2023-11-18T11:11:26;100459.75;;;0.77;100.00
51528;BME280;37612;51.768;21.590;2023-11-18T11:15:41;100461.61;;;0.84;100.00
51528;BME280;37612;51.768;21.590;2023-11-18T11:19:55;100466.66;;;0.84;100.00
51528;BME280;37612;51.768;21.590;2023-11-18T11:24:04;100467.64;;;0.84;100.00
51528;BME280;37612;51.768;21.590;2023-11-18T11:28:21;100474.42;;;0.88;100.00
51528;BME280;37612;51.768;21.590;2023-11-18T11:32:50;100476.08;;;0.85;100.00
51528;BME280;37612;51.768;21.590;2023-11-18T11:36:56;100478.03;;;0.84;100.00
51528;BME280;37612;51.768;21.590;2023-11-18T11:41:01;100481.36;;;0.90;100.00
51528;BME280;37612;51.768;21.590;2023-11-18T11:45:03;100490.68;;;0.88;100.00
51528;BME280;37612;51.768;21.590;2023-11-18T11:49:08;100494.28;;;0.89;100.00
51528;BME280;37612;51.768;21.590;2023-11-18T11:53:25;100497.61;;;0.87;100.00
51528;BME280;37612;51.768;21.590;2023-11-18T11:57:32;100497.61;;;0.83;100.00
51528;BME280;37612;51.768;21.590;2023-11-18T12:01:36;100492.00;;;0.81;100.00
51528;BME280;37612;51.768;21.590;2023-11-18T12:05:42;100501.73;;;0.79;100.00
51528;BME280;37612;51.768;21.590;2023-11-18T12:09:46;100514.45;;;0.77;100.00
51528;BME280;37612;51.768;21.590;2023-11-18T12:14:06;100521.10;;;0.72;100.00
51528;BME280;37612;51.768;21.590;2023-11-18T12:18:34;100516.86;;;0.72;100.00
51528;BME280;37612;51.768;21.590;2023-11-18T12:23:05;100518.77;;;0.71;100.00
51528;BME280;37612;51.768;21.590;2023-11-18T12:27:42;100524.98;;;0.65;100.00
51528;BME280;37612;51.768;21.590;2023-11-18T12:32:07;100526.29;;;0.66;100.00
51528;BME280;37612;51.768;21.590;2023-11-18T12:36:37;100524.86;;;0.70;100.00
51528;BME280;37612;51.768;21.590;2023-11-18T12:40:55;100530.95;;;0.68;100.00
51528;BME280;37612;51.768;21.590;2023-11-18T12:49:38;100538.50;;;0.74;100.00
51528;BME280;37612;51.768;21.590;2023-11-18T12:53:42;100543.59;;;0.73;100.00
51528;BME280;37612;51.768;21.590;2023-11-18T12:57:47;100551.95;;;0.75;100.00
51528;BME280;37612;51.768;21.590;2023-11-18T13:01:50;100555.29;;;0.72;100.00
51528;BME280;37612;51.768;21.590;2023-11-18T13:05:57;100568.59;;;0.62;100.00
51528;BME280;37612;51.768;21.590;2023-11-18T13:09:59;100578.55;;;0.58;100.00
51528;BME280;37612;51.768;21.590;2023-11-18T13:14:01;100581.52;;;0.56;100.00
51528;BME280;37612;51.768;21.590;2023-11-18T13:18:04;100582.39;;;0.52;100.00
51528;BME280;37612;51.768;21.590;2023-11-18T13:22:14;100586.09;;;0.47;100.00
51528;BME280;37612;51.768;21.590;2023-11-18T13:26:19;100594.88;;;0.46;100.00
51528;BME280;37612;51.768;21.590;2023-11-18T13:30:22;100601.08;;;0.51;100.00
51528;BME280;37612;51.768;21.590;2023-11-18T13:34:23;100604.67;;;0.45;100.00
51528;BME280;37612;51.768;21.590;2023-11-18T13:38:30;100610.54;;;0.37;100.00
51528;BME280;37612;51.768;21.590;2023-11-18T13:42:34;100617.23;;;0.37;100.00
51528;BME280;37612;51.768;21.590;2023-11-18T13:46:43;100624.11;;;0.34;100.00
51528;BME280;37612;51.768;21.590;2023-11-18T13:50:45;100629.59;;;0.33;100.00
51528;BME280;37612;51.768;21.590;2023-11-18T13:54:47;100630.41;;;0.34;100.00
51528;BME280;37612;51.768;21.590;2023-11-18T13:58:49;100641.23;;;0.32;100.00
51528;BME280;37612;51.768;21.590;2023-11-18T14:02:51;100655.17;;;0.27;100.00
51528;BME280;37612;51.768;21.590;2023-11-18T14:06:58;100663.23;;;0.23;100.00
51528;BME280;37612;51.768;21.590;2023-11-18T14:11:02;100663.39;;;0.20;100.00
51528;BME280;37612;51.768;21.590;2023-11-18T14:15:06;100659.45;;;0.13;100.00
51528;BME280;37612;51.768;21.590;2023-11-18T14:19:11;100660.25;;;0.07;100.00
51528;BME280;37612;51.768;21.590;2023-11-18T14:23:14;100660.05;;;0.08;100.00
51528;BME280;37612;51.768;21.590;2023-11-18T14:27:15;100660.73;;;0.04;100.00
51528;BME280;37612;51.768;21.590;2023-11-18T14:31:16;100671.15;;;0.00;100.00
51528;BME280;37612;51.768;21.590;2023-11-18T14:35:18;100675.59;;;-0.02;100.00
51528;BME280;37612;51.768;21.590;2023-11-18T14:39:20;100676.34;;;0.01;100.00
51528;BME280;37612;51.768;21.590;2023-11-18T14:43:23;100670.86;;;-0.00;100.00
51528;BME280;37612;51.768;21.590;2023-11-18T14:47:24;100670.59;;;-0.01;100.00
51528;BME280;37612;51.768;21.590;2023-11-18T14:51:27;100675.49;;;0.01;100.00
51528;BME280;37612;51.768;21.590;2023-11-18T14:55:30;100681.80;;;0.02;100.00
51528;BME280;37612;51.768;21.590;2023-11-18T14:59:35;100688.25;;;-0.01;100.00
51528;BME280;37612;51.768;21.590;2023-11-18T15:03:37;100688.67;;;-0.04;100.00
51528;BME280;37612;51.768;21.590;2023-11-18T15:07:38;100692.98;;;-0.03;100.00
51528;BME280;37612;51.768;21.590;2023-11-18T15:11:40;100703.07;;;-0.04;100.00
51528;BME280;37612;51.768;21.590;2023-11-18T15:15:41;100710.13;;;-0.05;100.00
51528;BME280;37612;51.768;21.590;2023-11-18T15:19:45;100706.15;;;-0.07;100.00
51528;BME280;37612;51.768;21.590;2023-11-18T15:23:47;100705.14;;;-0.10;100.00
51528;BME280;37612;51.768;21.590;2023-11-18T15:27:49;100703.77;;;-0.10;100.00
51528;BME280;37612;51.768;21.590;2023-11-18T15:31:51;100701.17;;;-0.07;100.00
51528;BME280;37612;51.768;21.590;2023-11-18T15:35:52;100697.86;;;-0.06;100.00
51528;BME280;37612;51.768;21.590;2023-11-18T15:39:55;100706.52;;;-0.07;100.00
51528;BME280;37612;51.768;21.590;2023-11-18T15:44:02;100709.95;;;-0.05;100.00
51528;BME280;37612;51.768;21.590;2023-11-18T15:48:04;100712.04;;;-0.01;100.00
51528;BME280;37612;51.768;21.590;2023-11-18T15:52:07;100712.06;;;-0.05;100.00
51528;BME280;37612;51.768;21.590;2023-11-18T15:56:33;100712.95;;;-0.09;100.00
51528;BME280;37612;51.768;21.590;2023-11-18T16:00:55;100718.22;;;-0.10;100.00
51528;BME280;37612;51.768;21.590;2023-11-18T16:04:56;100723.47;;;-0.10;100.00
51528;BME280;37612;51.768;21.590;2023-11-18T16:08:57;100724.88;;;-0.13;100.00
51528;BME280;37612;51.768;21.590;2023-11-18T16:13:00;100729.27;;;-0.15;100.00
51528;BME280;37612;51.768;21.590;2023-11-18T16:17:03;100738.09;;;-0.17;100.00
51528;BME280;37612;51.768;21.590;2023-11-18T16:21:04;100738.52;;;-0.18;100.00
51528;BME280;37612;51.768;21.590;2023-11-18T16:25:06;100738.86;;;-0.18;100.00
51528;BME280;37612;51.768;21.590;2023-11-18T16:29:08;100738.46;;;-0.16;100.00
51528;BME280;37612;51.768;21.590;2023-11-18T16:33:09;100742.00;;;-0.18;100.00
51528;BME280;37612;51.768;21.590;2023-11-18T16:37:10;100745.38;;;-0.20;100.00
51528;BME280;37612;51.768;21.590;2023-11-18T16:41:12;100747.02;;;-0.19;100.00
51528;BME280;37612;51.768;21.590;2023-11-18T16:45:15;100744.23;;;-0.21;100.00
51528;BME280;37612;51.768;21.590;2023-11-18T16:49:22;100744.52;;;-0.24;100.00
51528;BME280;37612;51.768;21.590;2023-11-18T16:53:24;100749.58;;;-0.23;100.00
51528;BME280;37612;51.768;21.590;2023-11-18T16:57:27;100750.80;;;-0.23;100.00
51528;BME280;37612;51.768;21.590;2023-11-18T17:01:28;100758.45;;;-0.26;100.00
51528;BME280;37612;51.768;21.590;2023-11-18T17:05:29;100755.52;;;-0.30;100.00
51528;BME280;37612;51.768;21.590;2023-11-18T17:09:31;100763.23;;;-0.30;100.00
51528;BME280;37612;51.768;21.590;2023-11-18T17:13:32;100775.08;;;-0.31;100.00
51528;BME280;37612;51.768;21.590;2023-11-18T17:17:34;100776.21;;;-0.32;100.00
51528;BME280;37612;51.768;21.590;2023-11-18T17:21:36;100774.27;;;-0.28;100.00
51528;BME280;37612;51.768;21.590;2023-11-18T17:25:38;100771.34;;;-0.26;100.00
51528;BME280;37612;51.768;21.590;2023-11-18T17:29:40;100771.59;;;-0.27;100.00
51528;BME280;37612;51.768;21.590;2023-11-18T17:33:41;100773.80;;;-0.27;100.00
51528;BME280;37612;51.768;21.590;2023-11-18T17:37:44;100771.19;;;-0.22;100.00
51528;BME280;37612;51.768;21.590;2023-11-18T17:41:47;100768.73;;;-0.19;100.00
51528;BME280;37612;51.768;21.590;2023-11-18T17:45:48;100768.72;;;-0.24;100.00
51528;BME280;37612;51.768;21.590;2023-11-18T17:49:50;100771.21;;;-0.29;100.00
51528;BME280;37612;51.768;21.590;2023-11-18T17:53:52;100771.86;;;-0.27;100.00
51528;BME280;37612;51.768;21.590;2023-11-18T17:57:53;100777.83;;;-0.29;100.00
51528;BME280;37612;51.768;21.590;2023-11-18T18:01:58;100773.77;;;-0.34;100.00
51528;BME280;37612;51.768;21.590;2023-11-18T18:06:14;100765.46;;;-0.34;100.00
51528;BME280;37612;51.768;21.590;2023-11-18T18:10:16;100756.98;;;-0.32;100.00
51528;BME280;37612;51.768;21.590;2023-11-18T18:14:18;100753.90;;;-0.33;100.00
51528;BME280;37612;51.768;21.590;2023-11-18T18:18:20;100755.77;;;-0.36;100.00
51528;BME280;37612;51.768;21.590;2023-11-18T18:22:21;100759.77;;;-0.35;100.00
51528;BME280;37612;51.768;21.590;2023-11-18T18:26:26;100758.63;;;-0.36;100.00
51528;BME280;37612;51.768;21.590;2023-11-18T18:30:35;100758.81;;;-0.39;100.00
51528;BME280;37612;51.768;21.590;2023-11-18T18:34:37;100757.59;;;-0.41;100.00
51528;BME280;37612;51.768;21.590;2023-11-18T18:38:39;100760.74;;;-0.41;100.00
51528;BME280;37612;51.768;21.590;2023-11-18T18:42:40;100758.48;;;-0.43;100.00
51528;BME280;37612;51.768;21.590;2023-11-18T18:46:41;100746.96;;;-0.45;100.00
51528;BME280;37612;51.768;21.590;2023-11-18T18:50:43;100740.91;;;-0.42;100.00
51528;BME280;37612;51.768;21.590;2023-11-18T18:54:47;100738.80;;;-0.37;100.00
51528;BME280;37612;51.768;21.590;2023-11-18T18:58:51;100736.52;;;-0.37;100.00
51528;BME280;37612;51.768;21.590;2023-11-18T19:02:53;100734.97;;;-0.39;100.00
51528;BME280;37612;51.768;21.590;2023-11-18T19:06:56;100728.42;;;-0.38;100.00
51528;BME280;37612;51.768;21.590;2023-11-18T19:10:58;100732.92;;;-0.33;100.00
51528;BME280;37612;51.768;21.590;2023-11-18T19:14:59;100736.42;;;-0.33;100.00
51528;BME280;37612;51.768;21.590;2023-11-18T19:19:04;100740.04;;;-0.36;100.00
51528;BME280;37612;51.768;21.590;2023-11-18T19:23:05;100749.61;;;-0.38;100.00
51528;BME280;37612;51.768;21.590;2023-11-18T19:27:09;100747.63;;;-0.38;100.00
51528;BME280;37612;51.768;21.590;2023-11-18T19:31:58;100730.28;;;-0.39;100.00
51528;BME280;37612;51.768;21.590;2023-11-18T19:36:21;100734.79;;;-0.42;100.00
51528;BME280;37612;51.768;21.590;2023-11-18T19:40:33;100736.91;;;-0.41;100.00
51528;BME280;37612;51.768;21.590;2023-11-18T19:44:34;100738.58;;;-0.38;100.00
51528;BME280;37612;51.768;21.590;2023-11-18T19:48:36;100737.57;;;-0.39;100.00
51528;BME280;37612;51.768;21.590;2023-11-18T19:52:39;100737.51;;;-0.40;100.00
51528;BME280;37612;51.768;21.590;2023-11-18T19:56:41;100742.66;;;-0.36;100.00
51528;BME280;37612;51.768;21.590;2023-11-18T20:00:45;100746.67;;;-0.36;100.00
51528;BME280;37612;51.768;21.590;2023-11-18T20:04:46;100752.92;;;-0.37;100.00
51528;BME280;37612;51.768;21.590;2023-11-18T20:08:48;100757.28;;;-0.37;100.00
51528;BME280;37612;51.768;21.590;2023-11-18T20:12:49;100757.54;;;-0.37;100.00
51528;BME280;37612;51.768;21.590;2023-11-18T20:16:57;100748.77;;;-0.44;100.00
51528;BME280;37612;51.768;21.590;2023-11-18T20:21:04;100746.52;;;-0.51;100.00
51528;BME280;37612;51.768;21.590;2023-11-18T20:25:05;100744.81;;;-0.51;100.00
51528;BME280;37612;51.768;21.590;2023-11-18T20:29:11;100748.85;;;-0.50;100.00
51528;BME280;37612;51.768;21.590;2023-11-18T20:33:16;100739.47;;;-0.52;100.00
51528;BME280;37612;51.768;21.590;2023-11-18T20:37:25;100743.63;;;-0.52;100.00
51528;BME280;37612;51.768;21.590;2023-11-18T20:41:26;100750.70;;;-0.49;100.00
51528;BME280;37612;51.768;21.590;2023-11-18T20:45:33;100754.67;;;-0.45;100.00
51528;BME280;37612;51.768;21.590;2023-11-18T20:49:36;100741.35;;;-0.47;100.00
51528;BME280;37612;51.768;21.590;2023-11-18T20:53:38;100736.99;;;-0.45;100.00